createdAt,value
2022-10-17T00:00:26.886Z,71.41
2022-10-17T00:03:18.921Z,71.53
2022-10-17T00:05:49.199Z,71.66
2022-10-17T00:08:19.316Z,71.76
2022-10-17T00:11:05.727Z,71.76
2022-10-17T00:13:35.229Z,71.79
2022-10-17T00:16:06.021Z,71.80
2022-10-17T00:18:35.277Z,71.95
2022-10-17T00:21:06.606Z,71.95
2022-10-17T00:23:35.659Z,71.96
2022-10-17T00:26:06.395Z,71.90
2022-10-17T00:28:35.403Z,71.95
2022-10-17T00:31:10.172Z,71.96
2022-10-17T00:33:39.644Z,72.06
2022-10-17T00:36:15.963Z,71.94
2022-10-17T00:38:48.307Z,71.87
2022-10-17T00:41:23.142Z,71.86
2022-10-17T00:44:18.626Z,71.89
2022-10-17T00:46:47.478Z,71.84
2022-10-17T00:49:16.301Z,71.86
2022-10-17T00:51:54.232Z,71.92
2022-10-17T00:54:30.487Z,72.05
2022-10-17T00:57:00.551Z,72.31
2022-10-17T00:59:37.080Z,72.35
2022-10-17T01:02:13.673Z,72.54
2022-10-17T01:04:50.976Z,72.60
2022-10-17T01:07:20.115Z,72.72
2022-10-17T01:09:52.729Z,72.82
2022-10-17T01:12:57.739Z,73.01
2022-10-17T01:15:45.172Z,73.15
2022-10-17T01:18:35.998Z,73.19
2022-10-17T01:21:10.501Z,73.28
2022-10-17T01:24:07.555Z,73.28
2022-10-17T01:27:05.924Z,73.39
2022-10-17T01:29:54.071Z,73.25
2022-10-17T01:32:46.978Z,73.22
2022-10-17T01:35:56.111Z,73.13
2022-10-17T01:38:48.880Z,73.24
2022-10-17T01:41:32.362Z,73.31
2022-10-17T01:44:35.543Z,73.34
2022-10-17T01:47:17.500Z,73.46
2022-10-17T01:50:01.076Z,73.51
2022-10-17T01:52:56.080Z,73.51
2022-10-17T01:55:35.199Z,73.55
2022-10-17T01:58:12.729Z,73.56
2022-10-17T02:00:45.471Z,73.51
2022-10-17T02:03:23.497Z,73.60
2022-10-17T02:05:52.754Z,73.62
2022-10-17T02:08:40.453Z,73.73
2022-10-17T02:11:21.793Z,73.75
2022-10-17T02:14:33.244Z,73.82
2022-10-17T02:17:44.997Z,73.83
2022-10-17T02:20:53.461Z,73.84
2022-10-17T02:24:03.943Z,73.88
2022-10-17T02:26:52.710Z,73.86
2022-10-17T02:29:35.053Z,73.78
2022-10-17T02:35:01.779Z,73.57
2022-10-17T02:37:35.045Z,73.63
2022-10-17T02:40:08.975Z,73.82
2022-10-17T02:42:46.488Z,73.96
2022-10-17T02:45:28.025Z,74.24
2022-10-17T02:48:09.717Z,74.40
2022-10-17T02:51:19.462Z,74.44
2022-10-17T02:54:06.275Z,74.42
2022-10-17T02:56:43.963Z,74.16
2022-10-17T02:59:16.210Z,74.13
2022-10-17T03:01:45.485Z,74.08
2022-10-17T03:04:27.371Z,73.97
2022-10-17T03:06:57.648Z,74.08
2022-10-17T03:09:29.123Z,74.33
2022-10-17T03:11:59.366Z,74.16
2022-10-17T03:14:37.971Z,74.12
2022-10-17T03:17:07.212Z,74.11
2022-10-17T03:19:38.396Z,74.24
2022-10-17T03:22:11.861Z,74.31
2022-10-17T03:24:45.569Z,74.48
2022-10-17T03:27:17.165Z,74.65
2022-10-17T03:29:53.352Z,74.84
2022-10-17T03:32:31.379Z,74.94
2022-10-17T03:35:56.820Z,75.23
2022-10-17T03:38:37.029Z,75.26
2022-10-17T03:41:07.576Z,75.32
2022-10-17T03:43:40.182Z,75.44
2022-10-17T03:46:12.913Z,75.45
2022-10-17T03:48:54.051Z,75.57
2022-10-17T03:51:28.673Z,75.61
2022-10-17T03:54:10.716Z,75.73
2022-10-17T03:56:47.058Z,75.86
2022-10-17T03:59:29.551Z,75.85
2022-10-17T04:02:14.208Z,75.83
2022-10-17T04:04:46.882Z,75.79
2022-10-17T04:10:14.106Z,75.84
2022-10-17T04:13:00.867Z,76.03
2022-10-17T04:16:18.439Z,76.11
2022-10-17T04:19:04.026Z,76.31
2022-10-17T04:21:42.826Z,76.38
2022-10-17T04:24:44.923Z,76.31
2022-10-17T04:27:55.180Z,76.37
2022-10-17T04:30:54.096Z,76.19
2022-10-17T04:33:57.172Z,76.15
2022-10-17T04:36:47.158Z,76.03
2022-10-17T04:39:32.730Z,75.91
2022-10-17T04:42:29.588Z,75.71
2022-10-17T04:45:06.421Z,75.58
2022-10-17T04:47:41.247Z,75.40
2022-10-17T04:50:12.494Z,75.24
2022-10-17T04:52:47.903Z,75.16
2022-10-17T04:55:25.957Z,75.22
2022-10-17T04:58:06.875Z,75.36
2022-10-17T05:00:47.581Z,75.60
2022-10-17T05:03:42.938Z,75.75
2022-10-17T05:06:25.338Z,75.80
2022-10-17T05:09:54.588Z,75.86
2022-10-17T05:15:33.852Z,75.89
2022-10-17T05:18:19.654Z,75.91
2022-10-17T05:24:09.730Z,76.09
2022-10-17T05:26:46.025Z,76.11
2022-10-17T05:29:20.510Z,76.10
2022-10-17T05:35:07.061Z,76.15
2022-10-17T05:37:44.245Z,76.21
2022-10-17T05:40:52.970Z,76.22
2022-10-17T05:43:40.931Z,76.26
2022-10-17T05:46:35.202Z,76.38
2022-10-17T05:49:44.954Z,76.41
2022-10-17T05:53:11.385Z,76.56
2022-10-17T05:56:14.857Z,76.67
2022-10-17T05:59:04.478Z,76.63
2022-10-17T06:02:17.659Z,76.72
2022-10-17T06:05:15.583Z,76.70
2022-10-17T06:07:58.282Z,76.72
2022-10-17T06:11:09.132Z,76.87
2022-10-17T06:14:03.937Z,76.85
2022-10-17T06:16:44.663Z,76.86
2022-10-17T06:19:28.020Z,76.84
2022-10-17T06:22:16.847Z,76.78
2022-10-17T06:25:03.239Z,76.84
2022-10-17T06:33:26.619Z,76.76
2022-10-17T06:34:39.589Z,76.62
2022-10-17T06:37:39.863Z,76.18
2022-10-17T06:40:24.025Z,75.99
2022-10-17T06:43:25.588Z,75.90
2022-10-17T06:46:59.686Z,75.73
2022-10-17T06:49:34.574Z,75.40
2022-10-17T06:52:32.943Z,74.99
2022-10-17T06:58:11.583Z,74.89
2022-10-17T07:01:00.858Z,74.41
2022-10-17T07:02:45.197Z,74.25
2022-10-17T07:05:35.835Z,73.88
2022-10-17T07:08:14.909Z,73.49
2022-10-17T07:11:05.335Z,73.29
2022-10-17T07:17:16.307Z,72.97
2022-10-17T07:19:48.825Z,72.36
2022-10-17T07:22:46.279Z,71.73
2022-10-17T07:26:10.741Z,71.02
2022-10-17T07:29:00.399Z,70.40
2022-10-17T07:31:53.524Z,69.92
2022-10-17T07:34:33.009Z,69.16
2022-10-17T07:37:22.994Z,68.34
2022-10-17T07:40:11.183Z,66.98
2022-10-17T07:43:23.370Z,65.91
2022-10-17T07:46:08.629Z,64.40
2022-10-17T07:48:58.885Z,63.18
2022-10-17T07:51:36.519Z,62.60
2022-10-17T07:54:08.311Z,62.50
2022-10-17T07:56:37.603Z,61.19
2022-10-17T07:59:09.311Z,59.53
2022-10-17T08:01:40.046Z,58.35
2022-10-17T08:04:23.496Z,57.96
2022-10-17T08:07:11.300Z,58.07
2022-10-17T08:09:54.741Z,57.71
2022-10-17T08:12:25.343Z,57.99
2022-10-17T08:15:05.068Z,57.81
2022-10-17T08:17:41.824Z,57.47
2022-10-17T08:20:19.997Z,56.87
2022-10-17T08:23:09.267Z,57.08
2022-10-17T08:25:43.229Z,57.01
2022-10-17T08:28:23.283Z,56.78
2022-10-17T08:31:09.779Z,56.47
2022-10-17T08:33:45.118Z,56.97
2022-10-17T08:36:31.477Z,57.39
2022-10-17T08:39:03.767Z,56.54
2022-10-17T08:41:40.234Z,56.97
2022-10-17T08:44:39.563Z,56.72
2022-10-17T08:47:33.066Z,56.25
2022-10-17T08:50:38.348Z,56.48
2022-10-17T08:53:19.469Z,56.75
2022-10-17T08:55:52.450Z,57.11
2022-10-17T08:58:38.645Z,57.29
2022-10-17T09:01:44.134Z,57.24
2022-10-17T09:04:40.062Z,57.21
2022-10-17T09:08:02.632Z,57.17
2022-10-17T09:11:30.579Z,57.26
2022-10-17T09:15:03.270Z,57.45
2022-10-17T09:18:14.294Z,57.22
2022-10-17T09:21:13.462Z,56.70
2022-10-17T09:23:59.530Z,56.63
2022-10-17T09:26:40.545Z,56.55
2022-10-17T09:29:24.646Z,56.22
2022-10-17T09:32:04.775Z,55.72
2022-10-17T09:34:33.690Z,56.13
2022-10-17T09:37:03.144Z,56.05
2022-10-17T09:39:33.204Z,55.88
2022-10-17T09:42:03.271Z,55.48
2022-10-17T09:45:12.919Z,55.24
2022-10-17T09:50:27.835Z,55.29
2022-10-17T09:53:02.326Z,54.75
2022-10-17T09:55:49.694Z,54.22
2022-10-17T09:58:20.652Z,54.08
2022-10-17T10:00:53.834Z,53.70
2022-10-17T10:03:29.867Z,53.71
2022-10-17T10:06:05.257Z,53.18
2022-10-17T10:08:58.929Z,52.17
2022-10-17T10:12:20.862Z,51.87
2022-10-17T10:14:55.531Z,51.95
2022-10-17T10:17:35.849Z,51.46
2022-10-17T10:20:30.172Z,51.82
2022-10-17T10:23:17.881Z,52.07
2022-10-17T10:26:02.945Z,51.21
2022-10-17T10:28:36.879Z,50.77
2022-10-17T10:31:09.602Z,50.67
2022-10-17T10:33:46.983Z,50.36
2022-10-17T10:36:21.984Z,50.33
2022-10-17T10:39:01.234Z,49.89
2022-10-17T10:41:48.384Z,49.30
2022-10-17T10:44:26.181Z,49.57
2022-10-17T10:47:33.109Z,48.94
2022-10-17T10:50:24.867Z,49.31
2022-10-17T10:53:26.888Z,48.87
2022-10-17T10:56:31.797Z,48.90
2022-10-17T10:59:14.547Z,48.65
2022-10-17T11:02:03.836Z,48.70
2022-10-17T11:04:52.762Z,48.65
2022-10-17T11:07:53.047Z,48.67
2022-10-17T11:10:55.424Z,48.61
2022-10-17T11:13:31.796Z,48.61
2022-10-17T11:16:23.538Z,48.71
2022-10-17T11:19:23.934Z,49.13
2022-10-17T11:22:26.658Z,48.97
2022-10-17T11:25:24.911Z,48.99
2022-10-17T11:27:54.442Z,49.05
2022-10-17T11:30:27.665Z,48.77
2022-10-17T11:33:01.257Z,48.91
2022-10-17T11:35:39.216Z,49.10
2022-10-17T11:38:45.972Z,49.35
2022-10-17T11:41:26.892Z,49.46
2022-10-17T11:44:32.663Z,49.62
2022-10-17T11:47:43.204Z,49.57
2022-10-17T11:54:09.360Z,49.47
2022-10-17T11:56:54.289Z,49.46
2022-10-17T12:00:10.027Z,49.48
2022-10-17T12:03:05.154Z,49.57
2022-10-17T12:05:56.389Z,49.56
2022-10-17T12:08:39.584Z,49.47
2022-10-17T12:11:46.911Z,49.53
2022-10-17T12:14:37.472Z,49.54
2022-10-17T12:17:40.599Z,49.44
2022-10-17T12:20:21.850Z,49.45
2022-10-17T12:22:52.179Z,49.50
2022-10-17T12:25:31.539Z,49.48
2022-10-17T12:28:22.871Z,49.51
2022-10-17T12:30:57.398Z,49.11
2022-10-17T12:33:48.447Z,48.88
2022-10-17T12:36:19.660Z,48.75
2022-10-17T12:39:01.760Z,48.87
2022-10-17T12:41:40.264Z,48.81
2022-10-17T12:44:16.655Z,48.66
2022-10-17T12:47:04.199Z,48.79
2022-10-17T12:49:48.811Z,49.02
2022-10-17T12:52:31.721Z,49.13
2022-10-17T12:55:18.309Z,49.21
2022-10-17T12:57:58.767Z,49.10
2022-10-17T13:00:59.536Z,49.16
2022-10-17T13:03:44.501Z,49.31
2022-10-17T13:06:34.545Z,49.51
2022-10-17T13:09:35.537Z,49.65
2022-10-17T13:12:12.660Z,49.89
2022-10-17T13:14:46.735Z,49.99
2022-10-17T13:17:30.904Z,50.11
2022-10-17T13:20:01.928Z,50.09
2022-10-17T13:22:33.466Z,49.74
2022-10-17T13:25:21.977Z,49.59
2022-10-17T13:28:02.992Z,49.80
2022-10-17T13:30:36.277Z,49.92
2022-10-17T13:33:30.528Z,49.90
2022-10-17T13:36:05.282Z,49.98
2022-10-17T13:38:40.293Z,49.96
2022-10-17T13:41:34.936Z,50.01
2022-10-17T13:44:15.238Z,50.24
2022-10-17T13:46:45.290Z,50.38
2022-10-17T13:49:43.315Z,50.25
2022-10-17T13:52:23.591Z,50.47
2022-10-17T13:54:54.562Z,50.62
2022-10-17T13:57:31.158Z,50.67
2022-10-17T14:00:19.902Z,50.66
2022-10-17T14:02:49.233Z,50.50
2022-10-17T14:05:23.384Z,50.61
2022-10-17T14:08:12.447Z,50.76
2022-10-17T14:10:44.760Z,50.83
2022-10-17T14:13:22.027Z,50.88
2022-10-17T14:15:53.020Z,50.99
2022-10-17T14:18:34.880Z,51.14
2022-10-17T14:24:14.152Z,51.23
2022-10-17T14:26:52.518Z,51.34
2022-10-17T14:29:35.148Z,51.40
2022-10-17T14:32:13.906Z,51.39
2022-10-17T14:34:43.096Z,51.34
2022-10-17T14:37:43.925Z,51.34
2022-10-17T14:40:35.416Z,51.47
2022-10-17T14:43:06.257Z,51.53
2022-10-17T14:45:39.382Z,51.60
2022-10-17T14:48:17.875Z,51.72
2022-10-17T14:51:06.868Z,51.71
2022-10-17T14:53:36.981Z,51.77
2022-10-17T14:56:26.876Z,51.86
2022-10-17T14:58:56.123Z,51.96
2022-10-17T15:01:25.351Z,51.93
2022-10-17T15:03:54.640Z,52.04
2022-10-17T15:06:30.619Z,52.18
2022-10-17T15:09:00.385Z,52.24
2022-10-17T15:11:29.628Z,52.26
2022-10-17T15:13:58.863Z,52.28
2022-10-17T15:16:33.293Z,52.45
2022-10-17T15:19:02.548Z,52.50
2022-10-17T15:21:40.570Z,52.56
2022-10-17T15:24:12.457Z,52.67
2022-10-17T15:26:43.921Z,52.83
2022-10-17T15:29:16.525Z,52.99
2022-10-17T15:31:45.732Z,53.16
2022-10-17T15:34:15.087Z,53.27
2022-10-17T15:36:51.957Z,53.27
2022-10-17T15:39:21.203Z,53.40
2022-10-17T15:41:50.460Z,53.62
2022-10-17T15:44:20.872Z,53.80
2022-10-17T15:46:50.222Z,53.96
2022-10-17T15:49:20.289Z,54.17
2022-10-17T15:51:55.454Z,54.50
2022-10-17T15:54:26.544Z,54.69
2022-10-17T15:57:04.441Z,55.08
2022-10-17T15:59:39.208Z,55.42
2022-10-17T16:02:27.299Z,55.87
2022-10-17T16:05:00.081Z,56.13
2022-10-17T16:07:38.021Z,56.22
2022-10-17T16:10:10.540Z,56.33
2022-10-17T16:12:43.314Z,56.54
2022-10-17T16:15:36.880Z,56.64
2022-10-17T16:18:17.213Z,56.73
2022-10-17T16:20:58.159Z,56.93
2022-10-17T16:23:27.947Z,57.17
2022-10-17T16:25:59.461Z,57.38
2022-10-17T16:28:31.040Z,57.33
2022-10-17T16:31:01.938Z,57.56
2022-10-17T16:33:34.684Z,57.87
2022-10-17T16:36:07.947Z,58.09
2022-10-17T16:38:40.944Z,58.37
2022-10-17T16:41:34.281Z,58.45
2022-10-17T16:44:19.794Z,58.78
2022-10-17T16:46:52.057Z,59.21
2022-10-17T16:49:21.452Z,59.43
2022-10-17T16:51:50.617Z,59.75
2022-10-17T16:54:22.537Z,60.00
2022-10-17T16:56:51.699Z,60.23
2022-10-17T16:59:21.101Z,60.34
2022-10-17T17:01:59.248Z,60.40
2022-10-17T17:04:31.349Z,60.48
2022-10-17T17:07:05.690Z,60.42
2022-10-17T17:09:40.243Z,60.52
2022-10-17T17:12:34.611Z,60.48
2022-10-17T17:15:08.222Z,60.32
2022-10-17T17:17:50.613Z,60.19
2022-10-17T17:20:31.142Z,60.14
2022-10-17T17:23:04.862Z,60.07
2022-10-17T17:25:45.522Z,59.81
2022-10-17T17:28:19.426Z,59.63
2022-10-17T17:31:02.122Z,59.52
2022-10-17T17:33:46.255Z,59.50
2022-10-17T17:36:22.127Z,59.30
2022-10-17T17:39:17.238Z,59.10
2022-10-17T17:45:39.086Z,58.68
2022-10-17T17:48:22.623Z,58.44
2022-10-17T17:51:09.142Z,58.13
2022-10-17T17:53:52.078Z,57.97
2022-10-17T17:56:33.274Z,57.76
2022-10-17T17:59:03.286Z,57.48
2022-10-17T18:01:41.459Z,57.34
2022-10-17T18:04:26.616Z,57.18
2022-10-17T18:07:00.596Z,57.00
2022-10-17T18:09:32.389Z,56.90
2022-10-17T18:12:01.693Z,56.79
2022-10-17T18:14:30.985Z,56.68
2022-10-17T18:17:14.926Z,56.56
2022-10-17T18:19:49.700Z,56.54
2022-10-17T18:22:21.468Z,56.54
2022-10-17T18:24:59.306Z,56.54
2022-10-17T18:27:51.759Z,56.36
2022-10-17T18:31:10.761Z,56.48
2022-10-17T18:34:08.810Z,56.43
2022-10-17T18:36:46.943Z,56.46
2022-10-17T18:39:41.502Z,56.63
2022-10-17T18:42:30.584Z,56.76
2022-10-17T18:45:11.728Z,56.79
2022-10-17T18:47:55.886Z,56.74
2022-10-17T18:50:33.363Z,56.73
2022-10-17T18:53:06.677Z,56.78
2022-10-17T18:55:41.736Z,56.78
2022-10-17T18:58:14.020Z,56.77
2022-10-17T19:01:08.092Z,56.88
2022-10-17T19:03:46.015Z,56.94
2022-10-17T19:06:39.539Z,56.95
2022-10-17T19:09:18.797Z,56.92
2022-10-17T19:12:05.099Z,57.12
2022-10-17T19:15:01.240Z,57.35
2022-10-17T19:17:49.077Z,57.49
2022-10-17T19:20:32.209Z,57.60
2022-10-17T19:23:07.805Z,57.70
2022-10-17T19:25:39.923Z,57.79
2022-10-17T19:28:12.690Z,57.82
2022-10-17T19:30:45.954Z,57.89
2022-10-17T19:33:18.964Z,57.86
2022-10-17T19:35:59.811Z,57.85
2022-10-17T19:38:32.999Z,57.82
2022-10-17T19:41:08.384Z,57.74
2022-10-17T19:43:53.116Z,57.90
2022-10-17T19:46:35.277Z,57.96
2022-10-17T19:49:26.995Z,58.10
2022-10-17T19:52:02.130Z,58.16
2022-10-17T19:54:46.297Z,58.31
2022-10-17T19:57:18.188Z,58.54
2022-10-17T20:00:43.999Z,58.48
2022-10-17T20:02:51.897Z,58.60
2022-10-17T20:06:19.144Z,58.59
2022-10-17T20:08:58.313Z,58.58
2022-10-17T20:11:33.354Z,58.73
2022-10-17T20:14:08.152Z,58.83
2022-10-17T20:21:24.023Z,59.15
2022-10-17T20:24:01.015Z,59.26
2022-10-17T20:27:27.643Z,59.31
2022-10-17T20:30:31.098Z,59.49
2022-10-17T20:33:08.374Z,59.63
2022-10-17T20:38:21.713Z,59.63
2022-10-17T20:41:34.041Z,59.57
2022-10-17T20:44:16.984Z,59.81
2022-10-17T20:47:04.500Z,60.01
2022-10-17T20:49:46.078Z,60.42
2022-10-17T20:52:46.598Z,60.46
2022-10-17T20:55:35.478Z,60.48
2022-10-17T20:58:26.966Z,60.42
2022-10-17T21:01:15.580Z,60.48
2022-10-17T21:03:50.170Z,60.74
2022-10-17T21:06:34.621Z,60.96
2022-10-17T21:09:15.310Z,60.98
2022-10-17T21:14:51.744Z,61.33
2022-10-17T21:17:42.894Z,61.42
2022-10-17T21:20:31.914Z,61.53
2022-10-17T21:23:02.529Z,61.55
2022-10-17T21:25:56.878Z,61.62
2022-10-17T21:28:31.547Z,61.79
2022-10-17T21:31:15.089Z,61.49
2022-10-17T21:33:58.360Z,61.59
2022-10-17T21:36:36.423Z,61.74
2022-10-17T21:39:30.176Z,61.59
2022-10-17T21:42:25.977Z,61.68
2022-10-17T21:45:15.852Z,61.66
2022-10-17T21:48:18.901Z,61.75
2022-10-17T21:51:11.985Z,61.77
2022-10-17T21:54:14.680Z,61.62
2022-10-17T21:57:01.436Z,61.41
2022-10-17T21:59:49.175Z,61.42
2022-10-17T22:03:06.983Z,61.47
2022-10-17T22:05:58.251Z,61.39
2022-10-17T22:09:08.132Z,61.48
2022-10-17T22:11:45.426Z,61.42
2022-10-17T22:14:25.016Z,61.32
2022-10-17T22:17:10.433Z,61.49
2022-10-17T22:19:48.835Z,61.67
2022-10-17T22:22:34.175Z,61.68
2022-10-17T22:25:37.929Z,61.90
2022-10-17T22:28:19.001Z,61.94
2022-10-17T22:31:31.720Z,62.14
2022-10-17T22:34:18.522Z,62.27
2022-10-17T22:36:58.665Z,62.46
2022-10-17T22:40:10.384Z,62.55
2022-10-17T22:42:44.269Z,62.57
2022-10-17T22:46:01.556Z,62.56
2022-10-17T22:48:46.407Z,62.73
2022-10-17T22:54:11.698Z,62.61
2022-10-17T22:57:12.336Z,62.99
2022-10-17T22:59:43.299Z,63.36
2022-10-17T23:02:33.576Z,63.18
2022-10-17T23:05:16.850Z,63.36
2022-10-17T23:08:15.441Z,63.46
2022-10-17T23:11:41.645Z,63.59
2022-10-17T23:14:03.339Z,63.70
2022-10-17T23:16:36.892Z,63.57
2022-10-17T23:19:35.574Z,63.54
2022-10-17T23:25:43.639Z,64.11
2022-10-17T23:28:26.416Z,64.08
2022-10-17T23:31:01.891Z,64.20
2022-10-17T23:33:51.511Z,64.22
2022-10-17T23:37:07.348Z,64.35
2022-10-17T23:40:17.410Z,64.41
2022-10-17T23:43:26.666Z,64.54
2022-10-17T23:45:59.395Z,64.62
2022-10-17T23:51:57.075Z,64.72
2022-10-17T23:54:56.118Z,64.58
2022-10-17T23:58:27.523Z,64.82
